sensor_id;sensor_type;location;lat;lon;timestamp;temperature;humidity
55785;DHT22;41709;52.536;5.688;2022-11-20T00:01:19;-0.70;81.90
55785;DHT22;41709;52.536;5.688;2022-11-20T00:03:46;-0.70;81.70
55785;DHT22;41709;52.536;5.688;2022-11-20T00:06:14;-0.70;81.60
55785;DHT22;41709;52.536;5.688;2022-11-20T00:08:40;-0.70;81.20
55785;DHT22;41709;52.536;5.688;2022-11-20T00:11:08;-0.70;81.10
55785;DHT22;41709;52.536;5.688;2022-11-20T00:13:34;-0.80;80.90
55785;DHT22;41709;52.536;5.688;2022-11-20T00:16:03;-0.80;81.00
55785;DHT22;41709;52.536;5.688;2022-11-20T00:18:29;-0.80;81.00
55785;DHT22;41709;52.536;5.688;2022-11-20T00:21:01;-0.80;81.00
55785;DHT22;41709;52.536;5.688;2022-11-20T00:23:27;-0.80;81.00
55785;DHT22;41709;52.536;5.688;2022-11-20T00:25:52;-0.80;81.20
55785;DHT22;41709;52.536;5.688;2022-11-20T00:28:18;-0.80;81.30
55785;DHT22;41709;52.536;5.688;2022-11-20T00:30:43;-0.80;81.30
55785;DHT22;41709;52.536;5.688;2022-11-20T00:33:09;-0.80;81.20
55785;DHT22;41709;52.536;5.688;2022-11-20T00:35:34;-0.90;81.00
55785;DHT22;41709;52.536;5.688;2022-11-20T00:38:00;-0.80;81.00
55785;DHT22;41709;52.536;5.688;2022-11-20T00:40:25;-0.80;81.00
55785;DHT22;41709;52.536;5.688;2022-11-20T00:42:51;-0.80;81.00
55785;DHT22;41709;52.536;5.688;2022-11-20T00:45:16;-0.90;80.90
55785;DHT22;41709;52.536;5.688;2022-11-20T00:47:42;-0.90;81.00
55785;DHT22;41709;52.536;5.688;2022-11-20T00:50:08;-0.90;81.10
55785;DHT22;41709;52.536;5.688;2022-11-20T00:52:33;-0.90;81.00
55785;DHT22;41709;52.536;5.688;2022-11-20T00:54:59;-0.90;80.90
55785;DHT22;41709;52.536;5.688;2022-11-20T00:57:24;-0.90;80.90
55785;DHT22;41709;52.536;5.688;2022-11-20T00:59:50;-0.90;80.50
55785;DHT22;41709;52.536;5.688;2022-11-20T01:02:15;-0.90;80.30
55785;DHT22;41709;52.536;5.688;2022-11-20T01:04:42;-1.00;80.30
55785;DHT22;41709;52.536;5.688;2022-11-20T01:07:07;-1.00;81.20
55785;DHT22;41709;52.536;5.688;2022-11-20T01:09:33;-1.00;80.60
55785;DHT22;41709;52.536;5.688;2022-11-20T01:11:59;-1.00;80.70
55785;DHT22;41709;52.536;5.688;2022-11-20T01:14:24;-1.00;80.90
55785;DHT22;41709;52.536;5.688;2022-11-20T01:16:51;-1.00;81.20
55785;DHT22;41709;52.536;5.688;2022-11-20T01:19:20;-1.00;81.20
55785;DHT22;41709;52.536;5.688;2022-11-20T01:21:48;-1.00;81.00
55785;DHT22;41709;52.536;5.688;2022-11-20T01:24:15;-1.00;80.80
55785;DHT22;41709;52.536;5.688;2022-11-20T01:26:43;-1.00;80.40
55785;DHT22;41709;52.536;5.688;2022-11-20T01:29:14;-1.10;80.00
55785;DHT22;41709;52.536;5.688;2022-11-20T01:31:39;-1.10;80.00
55785;DHT22;41709;52.536;5.688;2022-11-20T01:34:09;-1.10;80.20
55785;DHT22;41709;52.536;5.688;2022-11-20T01:36:35;-1.10;80.20
55785;DHT22;41709;52.536;5.688;2022-11-20T01:39:06;-1.10;80.60
55785;DHT22;41709;52.536;5.688;2022-11-20T01:41:33;-1.20;80.30
55785;DHT22;41709;52.536;5.688;2022-11-20T01:44:20;-1.20;80.20
55785;DHT22;41709;52.536;5.688;2022-11-20T01:47:05;-1.20;80.10
55785;DHT22;41709;52.536;5.688;2022-11-20T01:49:46;-1.20;79.90
55785;DHT22;41709;52.536;5.688;2022-11-20T01:52:27;-1.30;80.10
55785;DHT22;41709;52.536;5.688;2022-11-20T01:55:00;-1.20;80.40
55785;DHT22;41709;52.536;5.688;2022-11-20T01:57:29;-1.30;80.70
55785;DHT22;41709;52.536;5.688;2022-11-20T02:00:08;-1.30;80.80
55785;DHT22;41709;52.536;5.688;2022-11-20T02:02:35;-1.30;80.80
55785;DHT22;41709;52.536;5.688;2022-11-20T02:05:14;-1.30;80.90
55785;DHT22;41709;52.536;5.688;2022-11-20T02:07:41;-1.30;80.80
55785;DHT22;41709;52.536;5.688;2022-11-20T02:10:07;-1.30;80.80
55785;DHT22;41709;52.536;5.688;2022-11-20T02:12:33;-1.30;80.80
55785;DHT22;41709;52.536;5.688;2022-11-20T02:15:17;-1.30;80.70
55785;DHT22;41709;52.536;5.688;2022-11-20T02:17:42;-1.30;80.60
55785;DHT22;41709;52.536;5.688;2022-11-20T02:20:08;-1.30;80.40
55785;DHT22;41709;52.536;5.688;2022-11-20T02:22:48;-1.40;80.30
55785;DHT22;41709;52.536;5.688;2022-11-20T02:25:14;-1.40;80.40
55785;DHT22;41709;52.536;5.688;2022-11-20T02:27:40;-1.40;80.70
55785;DHT22;41709;52.536;5.688;2022-11-20T02:30:06;-1.40;80.80
55785;DHT22;41709;52.536;5.688;2022-11-20T02:32:37;-1.40;80.90
55785;DHT22;41709;52.536;5.688;2022-11-20T02:35:38;-1.40;80.80
55785;DHT22;41709;52.536;5.688;2022-11-20T02:37:57;-1.50;80.60
55785;DHT22;41709;52.536;5.688;2022-11-20T02:40:23;-1.50;80.70
55785;DHT22;41709;52.536;5.688;2022-11-20T02:42:56;-1.50;80.60
55785;DHT22;41709;52.536;5.688;2022-11-20T02:45:23;-1.50;80.50
55785;DHT22;41709;52.536;5.688;2022-11-20T02:47:49;-1.50;80.50
55785;DHT22;41709;52.536;5.688;2022-11-20T02:50:15;-1.50;80.70
55785;DHT22;41709;52.536;5.688;2022-11-20T02:52:41;-1.50;80.80
55785;DHT22;41709;52.536;5.688;2022-11-20T02:55:07;-1.50;80.90
55785;DHT22;41709;52.536;5.688;2022-11-20T02:57:33;-1.60;80.90
55785;DHT22;41709;52.536;5.688;2022-11-20T02:59:58;-1.50;80.90
55785;DHT22;41709;52.536;5.688;2022-11-20T03:02:24;-1.60;80.80
55785;DHT22;41709;52.536;5.688;2022-11-20T03:04:49;-1.60;81.00
55785;DHT22;41709;52.536;5.688;2022-11-20T03:07:15;-1.60;81.10
55785;DHT22;41709;52.536;5.688;2022-11-20T03:09:41;-1.60;81.20
55785;DHT22;41709;52.536;5.688;2022-11-20T03:12:07;-1.60;81.30
55785;DHT22;41709;52.536;5.688;2022-11-20T03:14:32;-1.60;81.30
55785;DHT22;41709;52.536;5.688;2022-11-20T03:16:58;-1.70;81.40
55785;DHT22;41709;52.536;5.688;2022-11-20T03:19:24;-1.60;81.50
55785;DHT22;41709;52.536;5.688;2022-11-20T03:21:50;-1.60;81.60
55785;DHT22;41709;52.536;5.688;2022-11-20T03:24:16;-1.60;81.60
55785;DHT22;41709;52.536;5.688;2022-11-20T03:26:41;-1.60;81.70
55785;DHT22;41709;52.536;5.688;2022-11-20T03:29:07;-1.60;81.70
55785;DHT22;41709;52.536;5.688;2022-11-20T03:31:38;-1.60;81.70
55785;DHT22;41709;52.536;5.688;2022-11-20T03:34:06;-1.60;81.60
55785;DHT22;41709;52.536;5.688;2022-11-20T03:36:32;-1.60;81.60
55785;DHT22;41709;52.536;5.688;2022-11-20T03:38:58;-1.70;81.70
55785;DHT22;41709;52.536;5.688;2022-11-20T03:41:30;-1.60;81.80
55785;DHT22;41709;52.536;5.688;2022-11-20T03:44:02;-1.70;81.80
55785;DHT22;41709;52.536;5.688;2022-11-20T03:46:29;-1.70;81.80
55785;DHT22;41709;52.536;5.688;2022-11-20T03:48:55;-1.70;81.90
55785;DHT22;41709;52.536;5.688;2022-11-20T03:51:25;-1.60;82.00
55785;DHT22;41709;52.536;5.688;2022-11-20T03:53:53;-1.70;81.90
55785;DHT22;41709;52.536;5.688;2022-11-20T03:56:23;-1.60;82.00
55785;DHT22;41709;52.536;5.688;2022-11-20T03:58:49;-1.60;82.10
55785;DHT22;41709;52.536;5.688;2022-11-20T04:01:23;-1.60;82.10
55785;DHT22;41709;52.536;5.688;2022-11-20T04:03:52;-1.70;82.00
55785;DHT22;41709;52.536;5.688;2022-11-20T04:06:26;-1.70;82.00
55785;DHT22;41709;52.536;5.688;2022-11-20T04:08:56;-1.70;82.00
55785;DHT22;41709;52.536;5.688;2022-11-20T04:11:26;-1.70;81.80
55785;DHT22;41709;52.536;5.688;2022-11-20T04:13:55;-1.70;81.70
55785;DHT22;41709;52.536;5.688;2022-11-20T04:16:22;-1.70;81.60
55785;DHT22;41709;52.536;5.688;2022-11-20T04:18:52;-1.70;81.70
55785;DHT22;41709;52.536;5.688;2022-11-20T04:21:18;-1.70;81.70
55785;DHT22;41709;52.536;5.688;2022-11-20T04:23:43;-1.80;81.70
55785;DHT22;41709;52.536;5.688;2022-11-20T04:26:11;-1.80;81.80
55785;DHT22;41709;52.536;5.688;2022-11-20T04:28:37;-1.80;81.60
55785;DHT22;41709;52.536;5.688;2022-11-20T04:31:08;-1.80;81.60
55785;DHT22;41709;52.536;5.688;2022-11-20T04:33:35;-1.80;81.50
55785;DHT22;41709;52.536;5.688;2022-11-20T04:36:06;-1.80;81.50
55785;DHT22;41709;52.536;5.688;2022-11-20T04:38:32;-1.80;81.30
55785;DHT22;41709;52.536;5.688;2022-11-20T04:41:00;-1.80;81.40
55785;DHT22;41709;52.536;5.688;2022-11-20T04:43:26;-1.80;81.50
55785;DHT22;41709;52.536;5.688;2022-11-20T04:45:53;-1.90;81.60
55785;DHT22;41709;52.536;5.688;2022-11-20T04:48:19;-1.90;81.70
55785;DHT22;41709;52.536;5.688;2022-11-20T04:50:44;-1.90;82.00
55785;DHT22;41709;52.536;5.688;2022-11-20T04:53:10;-1.90;82.10
55785;DHT22;41709;52.536;5.688;2022-11-20T04:55:36;-2.00;82.20
55785;DHT22;41709;52.536;5.688;2022-11-20T04:58:01;-1.90;83.00
55785;DHT22;41709;52.536;5.688;2022-11-20T05:00:27;-1.90;82.40
55785;DHT22;41709;52.536;5.688;2022-11-20T05:02:52;-1.90;82.30
55785;DHT22;41709;52.536;5.688;2022-11-20T05:05:19;-1.90;82.20
55785;DHT22;41709;52.536;5.688;2022-11-20T05:07:44;-2.00;82.00
55785;DHT22;41709;52.536;5.688;2022-11-20T05:10:10;-2.00;81.80
55785;DHT22;41709;52.536;5.688;2022-11-20T05:12:35;-1.90;81.90
55785;DHT22;41709;52.536;5.688;2022-11-20T05:15:01;-2.00;81.90
55785;DHT22;41709;52.536;5.688;2022-11-20T05:17:26;-1.90;82.00
55785;DHT22;41709;52.536;5.688;2022-11-20T05:19:52;-1.90;82.00
55785;DHT22;41709;52.536;5.688;2022-11-20T05:22:17;-2.00;82.00
55785;DHT22;41709;52.536;5.688;2022-11-20T05:24:43;-2.00;81.90
55785;DHT22;41709;52.536;5.688;2022-11-20T05:27:09;-1.90;81.90
55785;DHT22;41709;52.536;5.688;2022-11-20T05:29:34;-2.00;81.70
55785;DHT22;41709;52.536;5.688;2022-11-20T05:32:00;-2.00;81.60
55785;DHT22;41709;52.536;5.688;2022-11-20T05:34:25;-2.00;81.50
55785;DHT22;41709;52.536;5.688;2022-11-20T05:36:51;-2.00;81.60
55785;DHT22;41709;52.536;5.688;2022-11-20T05:39:16;-2.00;81.70
55785;DHT22;41709;52.536;5.688;2022-11-20T05:41:42;-2.00;81.70
55785;DHT22;41709;52.536;5.688;2022-11-20T05:44:10;-2.00;81.70
55785;DHT22;41709;52.536;5.688;2022-11-20T05:46:36;-2.00;81.80
55785;DHT22;41709;52.536;5.688;2022-11-20T05:49:01;-2.00;82.00
55785;DHT22;41709;52.536;5.688;2022-11-20T05:51:27;-2.10;82.00
55785;DHT22;41709;52.536;5.688;2022-11-20T05:53:53;-2.00;82.10
55785;DHT22;41709;52.536;5.688;2022-11-20T05:56:20;-2.00;82.10
55785;DHT22;41709;52.536;5.688;2022-11-20T05:58:47;-2.10;82.10
55785;DHT22;41709;52.536;5.688;2022-11-20T06:01:19;-2.00;82.20
55785;DHT22;41709;52.536;5.688;2022-11-20T06:03:45;-2.00;82.20
55785;DHT22;41709;52.536;5.688;2022-11-20T06:06:13;-2.10;82.30
55785;DHT22;41709;52.536;5.688;2022-11-20T06:08:39;-2.00;82.30
55785;DHT22;41709;52.536;5.688;2022-11-20T06:11:09;-2.10;82.10
55785;DHT22;41709;52.536;5.688;2022-11-20T06:13:35;-2.10;81.60
55785;DHT22;41709;52.536;5.688;2022-11-20T06:16:02;-2.10;81.40
55785;DHT22;41709;52.536;5.688;2022-11-20T06:18:28;-2.10;81.30
55785;DHT22;41709;52.536;5.688;2022-11-20T06:21:06;-2.10;81.30
55785;DHT22;41709;52.536;5.688;2022-11-20T06:23:33;-2.10;81.40
55785;DHT22;41709;52.536;5.688;2022-11-20T06:26:09;-2.20;81.60
55785;DHT22;41709;52.536;5.688;2022-11-20T06:28:36;-2.10;81.70
55785;DHT22;41709;52.536;5.688;2022-11-20T06:31:02;-2.20;81.90
55785;DHT22;41709;52.536;5.688;2022-11-20T06:33:28;-2.10;82.30
55785;DHT22;41709;52.536;5.688;2022-11-20T06:35:57;-2.10;82.50
55785;DHT22;41709;52.536;5.688;2022-11-20T06:38:23;-2.10;82.90
55785;DHT22;41709;52.536;5.688;2022-11-20T06:40:49;-2.10;83.20
55785;DHT22;41709;52.536;5.688;2022-11-20T06:43:14;-2.10;83.10
55785;DHT22;41709;52.536;5.688;2022-11-20T06:45:40;-2.10;83.20
55785;DHT22;41709;52.536;5.688;2022-11-20T06:48:05;-2.10;83.30
55785;DHT22;41709;52.536;5.688;2022-11-20T06:50:31;-2.10;83.40
55785;DHT22;41709;52.536;5.688;2022-11-20T06:53:00;-2.10;83.60
55785;DHT22;41709;52.536;5.688;2022-11-20T06:55:26;-2.10;83.80
55785;DHT22;41709;52.536;5.688;2022-11-20T06:57:52;-2.00;84.00
55785;DHT22;41709;52.536;5.688;2022-11-20T07:00:17;-2.00;84.00
55785;DHT22;41709;52.536;5.688;2022-11-20T07:02:43;-2.00;84.10
55785;DHT22;41709;52.536;5.688;2022-11-20T07:05:09;-2.00;84.20
55785;DHT22;41709;52.536;5.688;2022-11-20T07:07:34;-2.00;84.40
55785;DHT22;41709;52.536;5.688;2022-11-20T07:10:00;-1.90;84.60
55785;DHT22;41709;52.536;5.688;2022-11-20T07:12:25;-1.90;84.70
55785;DHT22;41709;52.536;5.688;2022-11-20T07:14:51;-1.90;84.80
55785;DHT22;41709;52.536;5.688;2022-11-20T07:17:16;-1.90;84.80
55785;DHT22;41709;52.536;5.688;2022-11-20T07:19:42;-1.90;85.00
55785;DHT22;41709;52.536;5.688;2022-11-20T07:22:08;-1.90;85.00
55785;DHT22;41709;52.536;5.688;2022-11-20T07:24:33;-1.90;85.10
55785;DHT22;41709;52.536;5.688;2022-11-20T07:27:00;-1.90;85.30
55785;DHT22;41709;52.536;5.688;2022-11-20T07:29:25;-1.80;85.40
55785;DHT22;41709;52.536;5.688;2022-11-20T07:31:51;-1.80;85.40
55785;DHT22;41709;52.536;5.688;2022-11-20T07:34:16;-1.80;85.30
55785;DHT22;41709;52.536;5.688;2022-11-20T07:36:42;-1.70;85.30
55785;DHT22;41709;52.536;5.688;2022-11-20T07:39:08;-1.70;85.20
55785;DHT22;41709;52.536;5.688;2022-11-20T07:41:33;-1.60;85.20
55785;DHT22;41709;52.536;5.688;2022-11-20T07:43:59;-1.60;85.10
55785;DHT22;41709;52.536;5.688;2022-11-20T07:46:24;-1.60;85.00
55785;DHT22;41709;52.536;5.688;2022-11-20T07:48:50;-1.50;84.90
55785;DHT22;41709;52.536;5.688;2022-11-20T07:51:15;-1.50;84.90
55785;DHT22;41709;52.536;5.688;2022-11-20T07:53:41;-1.50;84.90
55785;DHT22;41709;52.536;5.688;2022-11-20T07:56:06;-1.40;84.90
55785;DHT22;41709;52.536;5.688;2022-11-20T07:58:32;-1.40;84.70
55785;DHT22;41709;52.536;5.688;2022-11-20T08:01:04;-1.40;84.60
55785;DHT22;41709;52.536;5.688;2022-11-20T08:03:30;-1.30;84.40
55785;DHT22;41709;52.536;5.688;2022-11-20T08:05:59;-1.30;84.40
55785;DHT22;41709;52.536;5.688;2022-11-20T08:08:26;-1.30;84.40
55785;DHT22;41709;52.536;5.688;2022-11-20T08:10:52;-1.20;84.30
55785;DHT22;41709;52.536;5.688;2022-11-20T08:13:18;-1.20;85.00
55785;DHT22;41709;52.536;5.688;2022-11-20T08:16:02;-1.20;84.10
55785;DHT22;41709;52.536;5.688;2022-11-20T08:18:28;-1.10;84.00
55785;DHT22;41709;52.536;5.688;2022-11-20T08:20:53;-1.20;83.80
55785;DHT22;41709;52.536;5.688;2022-11-20T08:23:19;-1.10;83.70
55785;DHT22;41709;52.536;5.688;2022-11-20T08:25:49;-1.00;83.70
55785;DHT22;41709;52.536;5.688;2022-11-20T08:28:15;-1.00;83.50
55785;DHT22;41709;52.536;5.688;2022-11-20T08:30:40;-1.00;83.40
55785;DHT22;41709;52.536;5.688;2022-11-20T08:33:07;-1.00;83.20
55785;DHT22;41709;52.536;5.688;2022-11-20T08:35:34;-0.90;83.20
55785;DHT22;41709;52.536;5.688;2022-11-20T08:38:05;-0.90;83.20
55785;DHT22;41709;52.536;5.688;2022-11-20T08:40:32;-0.90;83.20
55785;DHT22;41709;52.536;5.688;2022-11-20T08:42:58;-0.90;83.20
55785;DHT22;41709;52.536;5.688;2022-11-20T08:45:23;-0.90;83.20
55785;DHT22;41709;52.536;5.688;2022-11-20T08:47:49;-0.80;83.30
55785;DHT22;41709;52.536;5.688;2022-11-20T08:50:16;-0.80;83.30
55785;DHT22;41709;52.536;5.688;2022-11-20T08:52:42;-0.80;83.20
55785;DHT22;41709;52.536;5.688;2022-11-20T08:55:09;-0.80;83.30
55785;DHT22;41709;52.536;5.688;2022-11-20T08:57:35;-0.70;83.40
55785;DHT22;41709;52.536;5.688;2022-11-20T09:00:03;-0.70;83.40
55785;DHT22;41709;52.536;5.688;2022-11-20T09:02:28;-0.70;83.60
55785;DHT22;41709;52.536;5.688;2022-11-20T09:04:54;-0.70;83.60
55785;DHT22;41709;52.536;5.688;2022-11-20T09:07:20;-0.60;83.40
55785;DHT22;41709;52.536;5.688;2022-11-20T09:09:45;-0.60;83.50
55785;DHT22;41709;52.536;5.688;2022-11-20T09:12:11;-0.50;83.50
55785;DHT22;41709;52.536;5.688;2022-11-20T09:14:36;-0.50;83.60
55785;DHT22;41709;52.536;5.688;2022-11-20T09:17:02;-0.50;83.50
55785;DHT22;41709;52.536;5.688;2022-11-20T09:19:28;-0.50;83.40
55785;DHT22;41709;52.536;5.688;2022-11-20T09:21:53;-0.50;83.40
55785;DHT22;41709;52.536;5.688;2022-11-20T09:24:19;-0.40;83.50
55785;DHT22;41709;52.536;5.688;2022-11-20T09:26:46;-0.40;83.50
55785;DHT22;41709;52.536;5.688;2022-11-20T09:29:12;-0.40;83.50
55785;DHT22;41709;52.536;5.688;2022-11-20T09:31:37;-0.30;83.50
55785;DHT22;41709;52.536;5.688;2022-11-20T09:34:03;-0.30;83.50
55785;DHT22;41709;52.536;5.688;2022-11-20T09:36:28;-0.20;83.30
55785;DHT22;41709;52.536;5.688;2022-11-20T09:38:54;-0.20;83.40
55785;DHT22;41709;52.536;5.688;2022-11-20T09:47:02;0.00;83.30
55785;DHT22;41709;52.536;5.688;2022-11-20T09:49:35;0.10;83.30
55785;DHT22;41709;52.536;5.688;2022-11-20T09:54:54;0.10;83.40
55785;DHT22;41709;52.536;5.688;2022-11-20T09:57:23;0.20;83.60
55785;DHT22;41709;52.536;5.688;2022-11-20T09:59:57;0.30;83.30
55785;DHT22;41709;52.536;5.688;2022-11-20T10:02:28;0.30;83.20
55785;DHT22;41709;52.536;5.688;2022-11-20T10:05:18;0.40;83.20
55785;DHT22;41709;52.536;5.688;2022-11-20T10:10:43;0.50;82.40
55785;DHT22;41709;52.536;5.688;2022-11-20T10:15:51;0.60;82.10
55785;DHT22;41709;52.536;5.688;2022-11-20T10:20:54;0.80;82.20
55785;DHT22;41709;52.536;5.688;2022-11-20T10:29:45;0.90;81.10
55785;DHT22;41709;52.536;5.688;2022-11-20T10:31:56;1.00;80.60
55785;DHT22;41709;52.536;5.688;2022-11-20T10:34:50;1.10;80.50
55785;DHT22;41709;52.536;5.688;2022-11-20T10:37:26;1.10;80.80
55785;DHT22;41709;52.536;5.688;2022-11-20T10:42:44;1.20;80.50
55785;DHT22;41709;52.536;5.688;2022-11-20T10:47:52;1.30;80.20
55785;DHT22;41709;52.536;5.688;2022-11-20T10:50:20;1.40;80.10
55785;DHT22;41709;52.536;5.688;2022-11-20T10:55:49;1.50;79.70
55785;DHT22;41709;52.536;5.688;2022-11-20T11:01:11;1.50;79.70
55785;DHT22;41709;52.536;5.688;2022-11-20T11:03:39;1.60;79.60
55785;DHT22;41709;52.536;5.688;2022-11-20T11:06:27;1.60;79.70
55785;DHT22;41709;52.536;5.688;2022-11-20T11:08:55;1.70;79.90
55785;DHT22;41709;52.536;5.688;2022-11-20T11:11:30;1.70;80.30
55785;DHT22;41709;52.536;5.688;2022-11-20T11:14:14;1.80;80.00
55785;DHT22;41709;52.536;5.688;2022-11-20T11:16:54;1.80;80.20
55785;DHT22;41709;52.536;5.688;2022-11-20T11:19:21;1.90;80.30
55785;DHT22;41709;52.536;5.688;2022-11-20T11:21:48;1.90;80.30
55785;DHT22;41709;52.536;5.688;2022-11-20T11:24:25;2.00;80.40
55785;DHT22;41709;52.536;5.688;2022-11-20T11:26:59;2.10;80.60
55785;DHT22;41709;52.536;5.688;2022-11-20T11:29:30;2.10;80.80
55785;DHT22;41709;52.536;5.688;2022-11-20T11:32:13;2.20;80.80
55785;DHT22;41709;52.536;5.688;2022-11-20T11:34:39;2.30;80.60
55785;DHT22;41709;52.536;5.688;2022-11-20T11:37:13;2.30;80.60
55785;DHT22;41709;52.536;5.688;2022-11-20T11:39:42;2.40;80.40
55785;DHT22;41709;52.536;5.688;2022-11-20T11:42:13;2.40;80.10
55785;DHT22;41709;52.536;5.688;2022-11-20T11:44:44;2.50;80.10
55785;DHT22;41709;52.536;5.688;2022-11-20T11:58:14;2.80;79.70
55785;DHT22;41709;52.536;5.688;2022-11-20T12:00:49;2.80;79.50
55785;DHT22;41709;52.536;5.688;2022-11-20T12:03:20;2.90;79.60
55785;DHT22;41709;52.536;5.688;2022-11-20T12:05:53;2.90;79.50
55785;DHT22;41709;52.536;5.688;2022-11-20T12:08:37;2.90;79.60
55785;DHT22;41709;52.536;5.688;2022-11-20T12:11:14;3.00;79.60
55785;DHT22;41709;52.536;5.688;2022-11-20T12:16:27;3.00;79.20
55785;DHT22;41709;52.536;5.688;2022-11-20T12:18:53;3.00;79.30
55785;DHT22;41709;52.536;5.688;2022-11-20T12:26:55;3.10;79.60
55785;DHT22;41709;52.536;5.688;2022-11-20T12:38:32;3.20;80.30
55785;DHT22;41709;52.536;5.688;2022-11-20T12:41:06;3.20;80.40
55785;DHT22;41709;52.536;5.688;2022-11-20T12:44:00;3.20;80.60
55785;DHT22;41709;52.536;5.688;2022-11-20T12:50:14;3.30;80.60
55785;DHT22;41709;52.536;5.688;2022-11-20T12:52:49;3.30;81.30
55785;DHT22;41709;52.536;5.688;2022-11-20T12:55:41;3.40;80.60
55785;DHT22;41709;52.536;5.688;2022-11-20T12:58:53;3.40;80.40
55785;DHT22;41709;52.536;5.688;2022-11-20T13:01:46;3.40;80.60
55785;DHT22;41709;52.536;5.688;2022-11-20T13:07:05;3.50;80.60
55785;DHT22;41709;52.536;5.688;2022-11-20T13:09:33;3.50;80.70
55785;DHT22;41709;52.536;5.688;2022-11-20T13:12:31;3.60;80.70
55785;DHT22;41709;52.536;5.688;2022-11-20T13:15:27;3.60;80.80
55785;DHT22;41709;52.536;5.688;2022-11-20T13:18:02;3.60;80.70
55785;DHT22;41709;52.536;5.688;2022-11-20T13:20:29;3.60;80.60
55785;DHT22;41709;52.536;5.688;2022-11-20T13:22:56;3.60;80.60
55785;DHT22;41709;52.536;5.688;2022-11-20T13:25:33;3.60;80.70
55785;DHT22;41709;52.536;5.688;2022-11-20T13:30:35;3.60;80.50
55785;DHT22;41709;52.536;5.688;2022-11-20T13:33:28;3.60;80.50
55785;DHT22;41709;52.536;5.688;2022-11-20T13:36:03;3.60;80.60
55785;DHT22;41709;52.536;5.688;2022-11-20T13:38:42;3.70;80.60
55785;DHT22;41709;52.536;5.688;2022-11-20T13:41:09;3.70;80.40
55785;DHT22;41709;52.536;5.688;2022-11-20T13:43:54;3.70;80.40
55785;DHT22;41709;52.536;5.688;2022-11-20T13:46:23;3.70;80.20
55785;DHT22;41709;52.536;5.688;2022-11-20T13:48:51;3.80;80.20
55785;DHT22;41709;52.536;5.688;2022-11-20T13:51:40;3.80;80.10
55785;DHT22;41709;52.536;5.688;2022-11-20T13:59:58;3.80;80.00
55785;DHT22;41709;52.536;5.688;2022-11-20T14:02:28;3.80;79.90
55785;DHT22;41709;52.536;5.688;2022-11-20T14:04:58;3.80;79.90
55785;DHT22;41709;52.536;5.688;2022-11-20T14:07:32;3.70;79.80
55785;DHT22;41709;52.536;5.688;2022-11-20T14:09:58;3.70;80.00
55785;DHT22;41709;52.536;5.688;2022-11-20T14:12:32;3.70;80.10
55785;DHT22;41709;52.536;5.688;2022-11-20T14:14:58;3.70;80.00
55785;DHT22;41709;52.536;5.688;2022-11-20T14:17:34;3.70;80.20
55785;DHT22;41709;52.536;5.688;2022-11-20T14:20:05;3.70;80.10
55785;DHT22;41709;52.536;5.688;2022-11-20T14:22:31;3.70;80.20
55785;DHT22;41709;52.536;5.688;2022-11-20T14:25:27;3.60;80.20
55785;DHT22;41709;52.536;5.688;2022-11-20T14:27:57;3.60;80.10
55785;DHT22;41709;52.536;5.688;2022-11-20T14:30:29;3.60;80.10
55785;DHT22;41709;52.536;5.688;2022-11-20T14:33:00;3.60;80.10
55785;DHT22;41709;52.536;5.688;2022-11-20T14:35:28;3.60;80.10
55785;DHT22;41709;52.536;5.688;2022-11-20T14:37:55;3.60;80.00
55785;DHT22;41709;52.536;5.688;2022-11-20T14:42:48;3.60;79.80
55785;DHT22;41709;52.536;5.688;2022-11-20T14:45:15;3.60;79.80
55785;DHT22;41709;52.536;5.688;2022-11-20T14:47:41;3.60;79.70
55785;DHT22;41709;52.536;5.688;2022-11-20T14:50:16;3.60;79.50
55785;DHT22;41709;52.536;5.688;2022-11-20T14:52:51;3.60;79.20
55785;DHT22;41709;52.536;5.688;2022-11-20T14:55:37;3.70;79.30
55785;DHT22;41709;52.536;5.688;2022-11-20T14:58:20;3.70;79.40
55785;DHT22;41709;52.536;5.688;2022-11-20T15:01:12;3.70;79.40
55785;DHT22;41709;52.536;5.688;2022-11-20T15:03:41;3.70;79.40
55785;DHT22;41709;52.536;5.688;2022-11-20T15:06:11;3.70;79.30
55785;DHT22;41709;52.536;5.688;2022-11-20T15:08:37;3.70;79.20
55785;DHT22;41709;52.536;5.688;2022-11-20T15:11:14;3.70;79.30
55785;DHT22;41709;52.536;5.688;2022-11-20T15:13:41;3.60;79.50
55785;DHT22;41709;52.536;5.688;2022-11-20T15:16:19;3.60;79.90
55785;DHT22;41709;52.536;5.688;2022-11-20T15:18:45;3.70;80.50
55785;DHT22;41709;52.536;5.688;2022-11-20T15:21:16;3.70;80.80
55785;DHT22;41709;52.536;5.688;2022-11-20T15:23:43;3.70;81.20
55785;DHT22;41709;52.536;5.688;2022-11-20T15:26:10;3.70;81.60
55785;DHT22;41709;52.536;5.688;2022-11-20T15:28:39;3.70;81.80
55785;DHT22;41709;52.536;5.688;2022-11-20T15:31:06;3.70;82.10
55785;DHT22;41709;52.536;5.688;2022-11-20T15:33:32;3.70;82.30
55785;DHT22;41709;52.536;5.688;2022-11-20T15:35:58;3.70;82.60
55785;DHT22;41709;52.536;5.688;2022-11-20T15:38:24;3.70;82.90
55785;DHT22;41709;52.536;5.688;2022-11-20T15:40:49;3.70;83.10
55785;DHT22;41709;52.536;5.688;2022-11-20T15:43:15;3.70;83.20
55785;DHT22;41709;52.536;5.688;2022-11-20T15:45:46;3.70;83.40
55785;DHT22;41709;52.536;5.688;2022-11-20T15:48:21;3.70;83.50
55785;DHT22;41709;52.536;5.688;2022-11-20T15:53:28;3.60;83.80
55785;DHT22;41709;52.536;5.688;2022-11-20T15:55:54;3.60;84.00
55785;DHT22;41709;52.536;5.688;2022-11-20T15:58:19;3.60;84.20
55785;DHT22;41709;52.536;5.688;2022-11-20T16:00:45;3.60;84.40
55785;DHT22;41709;52.536;5.688;2022-11-20T16:03:15;3.50;84.70
55785;DHT22;41709;52.536;5.688;2022-11-20T16:05:41;3.50;84.90
55785;DHT22;41709;52.536;5.688;2022-11-20T16:08:07;3.50;85.30
55785;DHT22;41709;52.536;5.688;2022-11-20T16:10:33;3.40;85.50
55785;DHT22;41709;52.536;5.688;2022-11-20T16:12:58;3.40;85.70
55785;DHT22;41709;52.536;5.688;2022-11-20T16:15:46;3.40;86.00
55785;DHT22;41709;52.536;5.688;2022-11-20T16:18:17;3.40;86.20
55785;DHT22;41709;52.536;5.688;2022-11-20T16:20:45;3.40;86.50
55785;DHT22;41709;52.536;5.688;2022-11-20T16:23:10;3.40;86.70
55785;DHT22;41709;52.536;5.688;2022-11-20T16:25:36;3.40;86.80
55785;DHT22;41709;52.536;5.688;2022-11-20T16:28:02;3.40;87.00
55785;DHT22;41709;52.536;5.688;2022-11-20T16:30:28;3.40;87.20
55785;DHT22;41709;52.536;5.688;2022-11-20T16:32:53;3.40;87.30
55785;DHT22;41709;52.536;5.688;2022-11-20T16:35:19;3.40;87.50
55785;DHT22;41709;52.536;5.688;2022-11-20T16:37:44;3.40;87.70
55785;DHT22;41709;52.536;5.688;2022-11-20T16:40:10;3.40;87.90
55785;DHT22;41709;52.536;5.688;2022-11-20T16:42:37;3.40;88.00
55785;DHT22;41709;52.536;5.688;2022-11-20T16:45:03;3.40;88.00
55785;DHT22;41709;52.536;5.688;2022-11-20T16:47:35;3.40;88.20
55785;DHT22;41709;52.536;5.688;2022-11-20T16:50:02;3.40;88.20
55785;DHT22;41709;52.536;5.688;2022-11-20T16:52:29;3.40;88.40
55785;DHT22;41709;52.536;5.688;2022-11-20T16:54:55;3.40;88.40
55785;DHT22;41709;52.536;5.688;2022-11-20T16:57:20;3.40;88.40
55785;DHT22;41709;52.536;5.688;2022-11-20T16:59:47;3.40;88.40
55785;DHT22;41709;52.536;5.688;2022-11-20T17:02:12;3.40;88.40
55785;DHT22;41709;52.536;5.688;2022-11-20T17:04:38;3.40;88.50
55785;DHT22;41709;52.536;5.688;2022-11-20T17:07:03;3.40;88.70
55785;DHT22;41709;52.536;5.688;2022-11-20T17:09:29;3.30;88.70
55785;DHT22;41709;52.536;5.688;2022-11-20T17:11:55;3.30;88.90